Decoded Metar for KICT (WICHITA in KS, USA) (IATA:ICT) | Meteo·Mobile Aviation Weather
aviador You're here:

KICT Decoded Metar

WICHITA in KS, USA
Report Time2018-10-20 20:53:00
UTC Time2018-10-20 21:54:48
Flight Rules vfr VFR
Wind020° at 13 kt
W.Decomp.*RWY 01: 13.0 kt HW 0.7 kt RCW
RWY 32: 7.8 kt HW 10.4 kt RCW
W.Rank020° ranks 11
Current wind is above 020° avg. (10.2)
Visibility9999 m
Phenomena:N/A
Clouds:N/A
Expected CloudBase > 8,000 ft AGL from Temp-Dew spread
CeilingNone
Temp22°C (ISA +10)
Dew Point02°C (27% RH)
AAT15.7°C
QNH1026 hPa
Density Alt2,123 ft
Elevation1,335 ft
Report Wrong Elevation
Raw Report
KICT 202053Z 02013KT 10SM CLR 22/02 A3031 RMK AO2 SLP259 T02170022
55015 $=

Extra information for KICT:More info

Metar Taf Metar & Taf Last 4 Metars F.Rules Stats Wind Profile Meteogram Temp Stats Airport Information Weather charts Add Link Nearby VenuesMetar ALERT Operation Metar Decoded Social comments

AIRNAV info for KICT